METAR Data

Data at: 0855 UTC 23 Jul 2019

METAR for:KLAX (Los Angeles Intl, CA, US)
Text:KLAX 230753Z 23005KT 9SM FEW003 SCT007 BKN200 18/17 A2998 RMK AO2 SLP150 T01780167 402390172 $
Temperature: 17.8°C ( 64°F)
Dewpoint: 16.7°C ( 62°F) [RH = 93%]
Pressure (altimeter):29.98 inches Hg (1015.3 mb) [Sea level pressure: 1015.0 mb]
Winds:from the SW (230 degrees) at 6 MPH (5 knots; 2.6 m/s)
Visibility: 9 sm ( 14 km)
Ceiling:20000 feet AGL
Clouds: few clouds at 300 feet AGL, scattered clouds at 700 feet AGL, broken clouds at 20000 feet AGL
QC Flag:SOME DATA ABOVE MAY BE INACCURATE!!!"$" is an indication the sensor requires maintenance.